Ottawa Macdonald-Cartier International Airport
CYOW : now visible

Airfield :











YOU CAN JOIN US ON...

 
LOGIN :

Register | Disclaimer

   EN    FR    IT 

 









Legend :    VFR   Marginal VFR   IFR   Intensive IFR   Very Intensive IFR
Visi :
Ceiling :
>= 8 km
>= 3000ft
5 to 8 km
1000 to 3000 ft
1500m to 5 km
500 to 1000 ft
800 to 1500m
200 to 500 ft
< 800m
< 200 ft
Symbols :   Thunderstorms  Fog  Heavy snow  Heavy precipitations  Wind > 20 kt






- Airport Elevation : 374 ft
- IATA code : YOW


CYOW - Ottawa Macdonald-Cartier International

CURRENT METAR :
  • 060500Z 05003KT 15SM FEW260 19/14 A3001 RMK CI1 SLP164 DENSITY ALT 800FT

EXPIRED METARs :
  • 060400Z 08006KT 15SM FEW260 19/14 A3000 RMK CI1 SLP159 DENSITY ALT 900FT
  • 060300Z 07005KT 15SM FEW070 FEW260 20/14 A2998 RMK AC1CI1 AC TR SLP154 DENSITY ALT 1000FT

TAF TAF CYOW
Valid from the 06 at 03:00 until the 07 at 00:00 UTC


060238Z 0603/0624 03007KT P6SM FEW240
BECMG 0606/0608 VRB03KT
FM061600 13007KT P6SM SCT050 RMK NXT FCST BY 060600Z
CZUL FIR / North America



MET'MAP, your aeronautical weather chart ! - Copyright ORBIFLY December 2007 - Disclaimer

ORBIFLY MET'MAP TEAM :

Programming & Development : Alexandra Zaïnal
Concept & original design : Baudouin d'Aumeries
Assistance for programming : Marc-Olivier Méhu
Technical & hardware support : Manuel Goepfert

Contact : metmap@orbifly.com




SOURCES & CREDITS :

   NOAA       Earth
Advisory